Time;durP1;ratioP1;P1;durP2;ratioP2;P2;SDS_P1;SDS_P2;PMS_P1;PMS_P2;Temp;Humidity;BMP_temperature;BMP_pressure;BME280_temperature;BME280_humidity;BME280_pressure;Samples;Min_cycle;Max_cycle;Signal;HPM_P1;HPM_P2
2021/03/03 00:03:24;;;;;;;19.02;8.07;;;5.00;99.90;;;;;;12455840;28;20142;-83
2021/03/03 00:09:25;;;;;;;17.48;8.57;;;5.10;99.90;;;;;;12454283;28;20623;-83
2021/03/03 00:15:26;;;;;;;13.98;7.55;;;5.00;99.90;;;;;;12466343;28;20052;-83
2021/03/03 00:21:28;;;;;;;13.27;7.65;;;4.80;99.90;;;;;;12440225;28;20068;-83
2021/03/03 00:27:29;;;;;;;12.02;6.70;;;4.60;99.90;;;;;;12419329;28;20053;-83
2021/03/03 00:33:49;;;;;;;12.20;7.18;;;4.50;99.90;;;;;;12459865;28;20094;-83
2021/03/03 00:39:51;;;;;;;13.60;7.38;;;4.40;99.90;;;;;;12436864;28;20444;-83
2021/03/03 00:45:52;;;;;;;12.82;6.93;;;4.30;99.90;;;;;;12444985;28;20089;-83
2021/03/03 00:51:53;;;;;;;12.45;6.93;;;4.20;99.90;;;;;;12440492;28;20041;-83
2021/03/03 00:57:55;;;;;;;11.60;6.80;;;4.40;99.90;;;;;;12434516;28;21125;-83
2021/03/03 01:04:07;;;;;;;12.20;7.03;;;4.20;99.90;;;;;;12440117;28;20065;-83
2021/03/03 01:10:08;;;;;;;13.65;7.20;;;4.10;99.90;;;;;;12461560;28;20175;-83
2021/03/03 01:16:10;;;;;;;13.05;6.80;;;4.10;99.90;;;;;;12434523;28;20134;-83
2021/03/03 01:22:11;;;;;;;13.23;7.20;;;4.20;99.90;;;;;;12441762;28;20061;-83
2021/03/03 01:28:12;;;;;;;11.40;6.30;;;4.30;99.90;;;;;;12439695;28;20088;-83
2021/03/03 01:34:28;;;;;;;10.15;6.40;;;4.20;99.90;;;;;;12445737;28;20045;-83
2021/03/03 01:40:29;;;;;;;11.57;6.07;;;4.10;99.90;;;;;;12441969;28;20061;-83
2021/03/03 01:46:30;;;;;;;13.25;7.10;;;4.00;99.90;;;;;;12454694;28;20494;-83
2021/03/03 01:52:33;;;;;;;12.02;6.53;;;4.00;99.90;;;;;;12458230;28;20068;-84
2021/03/03 01:58:34;;;;;;;14.55;6.75;;;4.00;99.90;;;;;;12441845;28;20106;-84
2021/03/03 02:04:55;;;;;;;12.30;6.57;;;3.90;99.90;;;;;;12466626;28;20042;-83
2021/03/03 02:10:56;;;;;;;13.18;6.82;;;3.80;99.90;;;;;;12451705;28;20060;-83
2021/03/03 02:16:59;;;;;;;13.70;7.47;;;3.70;99.90;;;;;;12433947;28;21185;-83
2021/03/03 02:23:14;;;;;;;14.90;7.13;;;3.60;99.90;;;;;;12443763;28;20084;-83
2021/03/03 02:29:20;;;;;;;13.48;7.15;;;3.60;99.90;;;;;;12402684;28;20485;-83
2021/03/03 02:35:22;;;;;;;12.38;6.72;;;3.60;99.90;;;;;;12422759;28;20471;-83
2021/03/03 02:41:24;;;;;;;12.20;6.63;;;3.50;99.90;;;;;;12409783;28;20053;-83
2021/03/03 02:47:25;;;;;;;14.18;7.50;;;3.40;99.90;;;;;;12406747;28;20045;-83
2021/03/03 02:53:27;;;;;;;14.40;7.75;;;3.50;99.90;;;;;;12409150;28;20103;-83
2021/03/03 02:59:36;;;;;;;13.27;7.00;;;3.60;99.90;;;;;;12398778;28;20054;-83
2021/03/03 03:05:41;;;;;;;14.48;7.57;;;3.50;99.90;;;;;;12425684;28;20038;-83
2021/03/03 03:11:50;;;;;;;13.63;7.18;;;3.50;99.90;;;;;;12407672;28;20045;-83
2021/03/03 03:17:58;;;;;;;14.30;7.20;;;3.40;99.90;;;;;;12409126;28;20690;-83
2021/03/03 03:24:00;;;;;;;12.65;6.97;;;3.30;99.90;;;;;;12409938;28;20049;-83
2021/03/03 03:30:02;;;;;;;15.82;7.95;;;3.10;99.90;;;;;;12436427;28;20262;-83
2021/03/03 03:36:04;;;;;;;12.48;7.80;;;3.10;99.90;;;;;;12448687;28;20442;-83
2021/03/03 03:42:08;;;;;;;14.48;7.88;;;3.10;99.90;;;;;;12451519;28;20700;-83
2021/03/03 03:48:10;;;;;;;15.93;7.78;;;3.00;99.90;;;;;;12445360;28;20139;-83
2021/03/03 03:54:12;;;;;;;14.82;7.85;;;3.00;99.90;;;;;;12445263;28;20045;-83
2021/03/03 04:00:21;;;;;;;14.95;8.65;;;3.10;99.90;;;;;;12451000;28;20057;-83
2021/03/03 04:06:22;;;;;;;17.15;8.77;;;3.20;99.90;;;;;;12458626;28;20080;-83
2021/03/03 04:12:24;;;;;;;16.88;9.23;;;3.20;99.90;;;;;;12439846;28;20072;-83
2021/03/03 04:18:25;;;;;;;18.13;9.23;;;3.30;99.90;;;;;;12445679;28;20089;-83
2021/03/03 04:24:26;;;;;;;16.30;8.40;;;3.30;99.90;;;;;;12436176;28;20057;-83
2021/03/03 04:30:28;;;;;;;14.55;8.30;;;3.20;99.90;;;;;;12445076;28;20072;-83
2021/03/03 04:36:49;;;;;;;18.17;9.27;;;3.10;99.90;;;;;;12449880;28;20686;-83
2021/03/03 04:42:50;;;;;;;18.98;11.15;;;3.10;99.90;;;;;;12465205;28;20139;-83
2021/03/03 04:48:51;;;;;;;16.05;8.48;;;2.90;99.90;;;;;;12451084;28;20084;-83
2021/03/03 04:54:53;;;;;;;20.00;8.77;;;2.80;99.90;;;;;;12441566;28;20203;-83
2021/03/03 05:00:54;;;;;;;24.70;12.23;;;2.80;99.90;;;;;;12441953;28;20100;-83
2021/03/03 05:07:08;;;;;;;19.95;10.07;;;2.70;99.90;;;;;;12449022;28;20049;-83
2021/03/03 05:13:16;;;;;;;20.60;9.85;;;2.70;99.90;;;;;;12456629;28;21389;-83
2021/03/03 05:19:18;;;;;;;21.10;10.95;;;2.60;99.90;;;;;;12444655;28;20080;-83
2021/03/03 05:25:19;;;;;;;22.38;11.68;;;2.60;99.90;;;;;;12446709;28;20091;-83
2021/03/03 05:31:20;;;;;;;25.60;12.27;;;2.50;99.90;;;;;;12456214;28;20041;-83
2021/03/03 05:37:37;;;;;;;23.90;10.68;;;2.50;99.90;;;;;;12466352;28;20053;-83
2021/03/03 05:43:39;;;;;;;19.42;10.73;;;2.40;99.90;;;;;;12449855;28;21122;-84
2021/03/03 05:49:43;;;;;;;17.15;10.30;;;2.30;99.90;;;;;;12445051;28;20079;-83
2021/03/03 05:55:45;;;;;;;19.03;10.53;;;2.30;99.90;;;;;;12452098;28;20465;-83
2021/03/03 06:01:49;;;;;;;21.25;10.25;;;2.20;99.90;;;;;;12442909;28;20133;-84
2021/03/03 06:07:56;;;;;;;20.83;11.27;;;2.20;99.90;;;;;;12446170;28;20387;-84
2021/03/03 06:13:59;;;;;;;19.52;10.45;;;2.40;99.90;;;;;;12438890;28;20045;-84
2021/03/03 06:20:03;;;;;;;18.85;10.77;;;2.50;99.90;;;;;;12435045;28;20137;-84
2021/03/03 06:26:10;;;;;;;23.90;10.35;;;2.50;99.90;;;;;;12434395;28;20625;-84
2021/03/03 06:32:12;;;;;;;22.10;10.38;;;2.40;99.90;;;;;;12440341;28;20037;-84
2021/03/03 06:38:29;;;;;;;20.85;11.10;;;2.40;99.90;;;;;;12436061;28;20049;-84
2021/03/03 06:45:00;;;;;;;22.98;11.70;;;2.60;99.90;;;;;;12454023;28;20131;-84
2021/03/03 06:51:21;;;;;;;24.40;10.57;;;2.70;99.90;;;;;;12433095;28;20124;-85
2021/03/03 06:57:23;;;;;;;21.65;9.98;;;2.90;99.90;;;;;;12441148;28;20073;-84
2021/03/03 07:03:26;;;;;;;16.55;9.43;;;3.00;99.90;;;;;;12443030;28;20048;-85
2021/03/03 07:09:42;;;;;;;23.98;10.40;;;3.30;99.90;;;;;;12439034;28;20693;-85
2021/03/03 07:15:43;;;;;;;22.73;10.68;;;3.70;99.90;;;;;;12447170;28;20096;-85
2021/03/03 07:21:45;;;;;;;19.23;10.30;;;3.90;99.90;;;;;;12448250;28;20060;-84
2021/03/03 07:27:50;;;;;;;25.52;11.45;;;4.20;99.90;;;;;;12445960;28;20049;-85
2021/03/03 07:33:55;;;;;;;22.77;11.35;;;4.30;99.90;;;;;;12450075;28;20113;-84
2021/03/03 07:40:00;;;;;;;23.95;11.65;;;4.40;99.90;;;;;;12475739;28;20061;-84
2021/03/03 07:46:06;;;;;;;19.05;10.98;;;4.50;99.90;;;;;;12452806;28;20180;-85
2021/03/03 07:52:09;;;;;;;20.95;11.52;;;4.70;99.90;;;;;;12442186;28;20111;-84
2021/03/03 07:58:11;;;;;;;19.33;11.48;;;5.20;99.90;;;;;;12468006;28;20061;-84
2021/03/03 08:04:35;;;;;;;25.25;11.68;;;5.50;99.90;;;;;;12446306;28;20038;-84
2021/03/03 08:10:39;;;;;;;23.73;13.38;;;5.60;99.90;;;;;;12461274;28;20087;-84
2021/03/03 08:16:55;;;;;;;27.65;14.18;;;5.70;99.90;;;;;;12444277;28;20156;-84
2021/03/03 08:22:58;;;;;;;33.92;16.65;;;5.60;99.90;;;;;;12455832;28;20046;-84
2021/03/03 08:29:13;;;;;;;25.92;15.82;;;5.70;99.90;;;;;;12413830;28;20090;-85
2021/03/03 08:35:38;;;;;;;27.75;15.02;;;5.90;99.90;;;;;;12420180;28;20042;-84
2021/03/03 08:41:40;;;;;;;21.67;13.45;;;6.10;99.90;;;;;;12415565;28;20085;-85
2021/03/03 08:47:53;;;;;;;24.05;13.30;;;6.30;99.90;;;;;;12412289;28;20145;-85
2021/03/03 08:54:12;;;;;;;26.15;14.45;;;6.50;99.90;;;;;;12430713;28;20061;-85
2021/03/03 09:00:46;;;;;;;26.75;14.50;;;6.50;99.90;;;;;;12438123;28;20273;-85
2021/03/03 09:06:49;;;;;;;22.77;13.77;;;6.40;99.90;;;;;;12441135;28;20486;-85
2021/03/03 09:12:51;;;;;;;23.00;13.15;;;6.50;99.90;;;;;;12413281;28;20038;-85
2021/03/03 09:19:11;;;;;;;25.33;13.43;;;6.90;99.90;;;;;;12416697;28;20050;-85
2021/03/03 09:25:20;;;;;;;23.70;14.52;;;7.10;99.90;;;;;;12430616;28;20490;-85
2021/03/03 09:31:43;;;;;;;26.08;14.20;;;7.10;99.90;;;;;;12468246;28;20049;-85
2021/03/03 09:37:46;;;;;;;24.63;12.30;;;7.40;99.90;;;;;;12465649;28;20057;-85
2021/03/03 09:44:02;;;;;;;23.27;11.82;;;7.50;99.90;;;;;;12453456;28;20056;-86
2021/03/03 09:50:09;;;;;;;23.83;13.32;;;7.80;99.90;;;;;;12443827;28;20102;-85
2021/03/03 09:56:30;;;;;;;19.10;11.75;;;8.10;99.90;;;;;;12441258;28;20061;-85
2021/03/03 10:02:31;;;;;;;21.83;12.93;;;8.50;99.90;;;;;;12464552;28;20056;-85
2021/03/03 10:08:33;;;;;;;20.58;12.77;;;9.10;99.90;;;;;;12433887;28;20098;-85
2021/03/03 10:14:34;;;;;;;20.35;12.15;;;9.30;99.90;;;;;;12447813;28;20049;-85
2021/03/03 10:20:40;;;;;;;21.95;12.77;;;9.40;99.90;;;;;;12434402;28;20049;-85
2021/03/03 10:26:51;;;;;;;21.83;13.15;;;9.50;99.90;;;;;;12426371;28;20089;-85
2021/03/03 10:32:53;;;;;;;23.80;13.07;;;9.70;99.90;;;;;;12443195;28;20056;-85
2021/03/03 10:38:56;;;;;;;20.92;11.85;;;9.90;99.90;;;;;;12437462;28;20103;-85
2021/03/03 10:44:58;;;;;;;19.48;10.88;;;10.20;99.90;;;;;;12430829;28;20077;-86
2021/03/03 10:51:01;;;;;;;24.10;9.77;;;10.20;99.90;;;;;;12441293;28;20121;-85
2021/03/03 10:57:08;;;;;;;24.67;10.18;;;10.80;99.90;;;;;;12438879;28;20076;-85
2021/03/03 11:03:10;;;;;;;21.60;10.38;;;11.20;99.90;;;;;;12425477;28;20095;-85
2021/03/03 11:09:13;;;;;;;23.92;10.55;;;11.50;99.90;;;;;;12441404;28;20045;-86
2021/03/03 11:15:16;;;;;;;21.88;10.65;;;11.80;99.90;;;;;;12441073;28;20124;-85
2021/03/03 11:21:18;;;;;;;28.50;10.80;;;11.80;99.90;;;;;;12447845;28;20124;-86
2021/03/03 11:27:19;;;;;;;26.23;11.57;;;12.00;99.90;;;;;;12454011;28;20057;-86
2021/03/03 11:33:21;;;;;;;22.08;11.85;;;12.00;99.90;;;;;;12441669;28;20118;-86
2021/03/03 11:39:22;;;;;;;24.13;11.40;;;12.00;99.90;;;;;;12444779;28;20054;-86
2021/03/03 11:45:24;;;;;;;23.73;11.15;;;12.00;99.90;;;;;;12431120;28;20084;-86
2021/03/03 11:51:25;;;;;;;23.00;10.98;;;12.10;99.90;;;;;;12449845;28;20084;-86
2021/03/03 11:57:45;;;;;;;29.33;13.27;;;12.40;99.90;;;;;;12456509;28;20057;-86
2021/03/03 12:03:46;;;;;;;26.60;12.13;;;12.70;99.90;;;;;;12441593;28;20120;-86
2021/03/03 12:09:47;;;;;;;25.63;12.75;;;13.10;99.90;;;;;;12451271;28;20054;-86
2021/03/03 12:15:49;;;;;;;23.23;13.70;;;13.20;99.90;;;;;;12450780;28;20084;-86
2021/03/03 12:21:51;;;;;;;27.67;14.18;;;13.60;99.90;;;;;;12443337;28;20060;-86
2021/03/03 12:27:53;;;;;;;25.95;14.50;;;13.70;99.90;;;;;;12409886;28;20177;-86
2021/03/03 12:33:54;;;;;;;31.90;16.52;;;13.70;99.90;;;;;;12403712;28;20052;-86
2021/03/03 12:39:55;;;;;;;33.25;15.55;;;14.00;99.90;;;;;;12406033;28;20493;-87
2021/03/03 12:45:57;;;;;;;29.85;14.90;;;14.40;99.90;;;;;;12431976;28;20873;-86
2021/03/03 12:51:58;;;;;;;30.33;15.65;;;14.40;99.90;;;;;;12455279;28;20046;-87
2021/03/03 12:58:00;;;;;;;34.85;15.63;;;14.30;99.90;;;;;;12433066;28;20042;-86
2021/03/03 13:04:02;;;;;;;31.27;16.27;;;14.50;99.90;;;;;;12408317;28;20640;-86
2021/03/03 13:10:05;;;;;;;28.80;15.50;;;14.50;99.90;;;;;;12417606;28;20050;-86
2021/03/03 13:16:06;;;;;;;37.60;16.50;;;14.70;99.90;;;;;;12414045;28;20153;-86
2021/03/03 13:22:07;;;;;;;33.00;16.45;;;14.60;99.90;;;;;;12401191;28;20041;-86
2021/03/03 13:28:09;;;;;;;36.50;16.92;;;14.60;99.90;;;;;;12417377;28;20093;-85
2021/03/03 13:34:15;;;;;;;37.05;15.95;;;14.60;99.90;;;;;;12405151;28;20057;-86
2021/03/03 13:40:16;;;;;;;30.35;16.48;;;14.40;99.90;;;;;;12418857;28;20486;-85
2021/03/03 13:46:18;;;;;;;34.60;18.33;;;14.30;99.90;;;;;;12404584;28;20424;-85
2021/03/03 13:52:20;;;;;;;34.45;19.30;;;14.20;99.90;;;;;;12402649;28;20046;-86
2021/03/03 13:58:21;;;;;;;34.92;20.27;;;14.00;99.90;;;;;;12418385;28;20046;-86
2021/03/03 14:04:22;;;;;;;39.83;22.13;;;13.90;99.90;;;;;;12403547;28;20045;-86
2021/03/03 14:10:24;;;;;;;47.28;23.77;;;13.80;99.90;;;;;;12406584;28;20045;-85
2021/03/03 14:16:26;;;;;;;41.45;23.27;;;13.70;99.90;;;;;;12405493;28;20497;-85
2021/03/03 14:22:27;;;;;;;42.17;23.52;;;13.80;99.90;;;;;;12405480;28;20054;-85
2021/03/03 14:28:28;;;;;;;39.70;22.83;;;13.80;99.90;;;;;;12395361;28;20054;-85
2021/03/03 14:34:30;;;;;;;42.17;22.25;;;13.90;99.90;;;;;;12415472;28;20054;-86
2021/03/03 14:40:32;;;;;;;43.33;22.52;;;13.90;99.90;;;;;;12418439;28;20050;-86
2021/03/03 14:46:34;;;;;;;35.13;21.50;;;13.90;99.90;;;;;;12411109;28;20778;-86
2021/03/03 14:52:36;;;;;;;44.75;23.40;;;14.00;99.90;;;;;;12399676;28;20471;-86
2021/03/03 14:58:37;;;;;;;46.83;24.27;;;13.90;99.90;;;;;;12406909;28;20077;-86
2021/03/03 15:04:39;;;;;;;47.95;24.27;;;13.90;99.90;;;;;;12398556;28;21373;-86
2021/03/03 15:10:41;;;;;;;50.35;26.45;;;13.90;99.90;;;;;;12398691;28;20091;-86
2021/03/03 15:16:42;;;;;;;44.42;25.67;;;13.70;99.90;;;;;;12400875;28;20110;-86
2021/03/03 15:22:44;;;;;;;43.90;26.55;;;13.70;99.90;;;;;;12400494;28;20081;-86
2021/03/03 15:28:45;;;;;;;49.65;28.38;;;13.50;99.90;;;;;;12394792;28;20121;-86
2021/03/03 15:34:47;;;;;;;46.42;28.55;;;13.60;99.90;;;;;;12398084;28;20050;-86
2021/03/03 15:40:48;;;;;;;48.83;28.38;;;13.60;99.90;;;;;;12396765;28;20038;-86
2021/03/03 15:46:49;;;;;;;51.10;29.13;;;13.60;99.90;;;;;;12396859;28;20042;-86
2021/03/03 15:52:51;;;;;;;58.35;31.48;;;13.70;99.90;;;;;;12396365;28;20073;-86
2021/03/03 15:58:52;;;;;;;53.30;32.35;;;13.60;99.90;;;;;;12409549;28;20132;-86
2021/03/03 16:04:54;;;;;;;54.25;32.63;;;13.60;99.90;;;;;;12404155;28;20034;-86
2021/03/03 16:10:55;;;;;;;52.63;31.92;;;13.40;99.90;;;;;;12404955;28;20074;-86
2021/03/03 16:16:56;;;;;;;60.13;32.58;;;13.20;99.90;;;;;;12398831;28;20084;-86
2021/03/03 16:23:14;;;;;;;61.75;34.58;;;13.00;99.90;;;;;;12398896;28;20046;-86
2021/03/03 16:29:16;;;;;;;59.15;35.38;;;12.80;99.90;;;;;;12430583;28;20072;-86
2021/03/03 16:35:18;;;;;;;54.97;34.92;;;12.70;99.90;;;;;;12400611;28;20046;-85
2021/03/03 16:41:20;;;;;;;68.47;38.15;;;12.50;99.90;;;;;;12400323;28;20542;-86
2021/03/03 16:47:22;;;;;;;70.43;39.90;;;12.40;99.90;;;;;;12424941;28;20145;-86
2021/03/03 16:53:23;;;;;;;65.57;36.55;;;12.10;99.90;;;;;;12408869;28;20050;-86
2021/03/03 16:59:25;;;;;;;60.78;36.22;;;12.00;99.90;;;;;;12405059;28;20119;-86
2021/03/03 17:05:26;;;;;;;61.13;36.08;;;11.90;99.90;;;;;;12403379;28;20126;-86
2021/03/03 17:11:27;;;;;;;59.72;36.05;;;11.80;99.90;;;;;;12399369;28;20164;-86
2021/03/03 17:17:28;;;;;;;61.58;36.22;;;11.60;99.90;;;;;;12409688;28;20132;-86
2021/03/03 17:23:30;;;;;;;70.10;37.20;;;11.60;99.90;;;;;;12393260;28;20065;-85
2021/03/03 17:29:31;;;;;;;63.72;38.22;;;11.40;99.90;;;;;;12407288;28;20192;-86
2021/03/03 17:35:32;;;;;;;66.82;38.55;;;10.80;99.90;;;;;;12409419;28;20050;-86
2021/03/03 17:41:34;;;;;;;62.80;37.47;;;10.30;99.90;;;;;;12426517;28;20049;-84
2021/03/03 17:47:36;;;;;;;63.80;39.50;;;10.20;99.90;;;;;;12411066;28;20042;-84
2021/03/03 17:53:37;;;;;;;75.07;41.97;;;10.00;99.90;;;;;;12412022;28;20054;-84
2021/03/03 17:59:39;;;;;;;70.03;40.83;;;9.90;99.90;;;;;;12410119;28;20069;-85
2021/03/03 18:05:40;;;;;;;67.45;39.22;;;9.70;99.90;;;;;;12414259;28;20082;-84
2021/03/03 18:11:42;;;;;;;70.22;40.95;;;9.40;99.90;;;;;;12408010;28;20053;-84
2021/03/03 18:17:43;;;;;;;78.03;44.08;;;9.30;99.90;;;;;;12432396;28;20129;-84
2021/03/03 18:23:45;;;;;;;78.95;44.33;;;9.40;99.90;;;;;;12407363;28;20042;-84
2021/03/03 18:29:47;;;;;;;74.18;43.40;;;9.50;99.90;;;;;;12436036;28;20042;-84
2021/03/03 18:35:50;;;;;;;80.20;44.40;;;9.40;99.90;;;;;;12437908;28;20585;-84
2021/03/03 18:41:51;;;;;;;69.93;41.33;;;9.30;99.90;;;;;;12439466;28;20125;-83
2021/03/03 18:47:53;;;;;;;74.45;42.17;;;9.60;99.90;;;;;;12443314;28;20041;-83
2021/03/03 18:53:54;;;;;;;73.35;42.83;;;9.80;99.90;;;;;;12459669;28;20045;-84
2021/03/03 18:59:59;;;;;;;68.32;40.33;;;9.80;99.90;;;;;;12459586;28;20050;-84
2021/03/03 19:06:01;;;;;;;71.28;41.67;;;9.80;99.90;;;;;;12460987;28;20037;-83
2021/03/03 19:12:08;;;;;;;70.50;42.45;;;9.50;99.90;;;;;;12454889;28;20046;-84
2021/03/03 19:18:09;;;;;;;78.38;43.25;;;9.00;99.90;;;;;;12443560;28;20049;-84
2021/03/03 19:24:11;;;;;;;81.65;45.72;;;8.80;99.90;;;;;;12452183;28;20049;-84
2021/03/03 19:30:13;;;;;;;71.68;41.05;;;8.60;99.90;;;;;;12444551;28;20157;-84
2021/03/03 19:36:14;;;;;;;65.40;39.30;;;8.70;99.90;;;;;;12455943;28;20084;-84
2021/03/03 19:42:16;;;;;;;66.38;40.58;;;8.70;99.90;;;;;;12460411;28;20082;-84
2021/03/03 19:48:17;;;;;;;72.03;41.83;;;8.50;99.90;;;;;;12456920;28;20067;-84
2021/03/03 19:54:18;;;;;;;78.95;43.08;;;8.30;99.90;;;;;;12465195;28;20065;-84
2021/03/03 20:00:20;;;;;;;68.18;42.30;;;8.10;99.90;;;;;;12457414;28;21062;-83
2021/03/03 20:06:22;;;;;;;72.20;40.85;;;7.90;99.90;;;;;;12457661;28;20056;-83
2021/03/03 20:12:23;;;;;;;71.88;42.80;;;7.80;99.90;;;;;;12442411;28;20132;-83
2021/03/03 20:18:24;;;;;;;68.90;41.00;;;7.80;99.90;;;;;;12440478;28;20430;-83
2021/03/03 20:24:26;;;;;;;66.07;38.55;;;7.60;99.90;;;;;;12432735;28;20045;-83
2021/03/03 20:30:27;;;;;;;66.38;37.65;;;7.50;99.90;;;;;;12438730;28;20570;-84
2021/03/03 20:36:29;;;;;;;67.40;38.00;;;7.40;99.90;;;;;;12446893;28;20674;-83
2021/03/03 20:42:30;;;;;;;66.53;37.00;;;7.30;99.90;;;;;;12443604;28;20090;-83
2021/03/03 20:48:38;;;;;;;60.08;35.95;;;7.20;99.90;;;;;;12450720;28;20327;-83
2021/03/03 20:54:39;;;;;;;60.38;35.10;;;7.20;99.90;;;;;;12436294;28;20494;-84
2021/03/03 21:00:41;;;;;;;66.63;34.17;;;7.30;99.90;;;;;;12446854;28;20053;-83
2021/03/03 21:06:43;;;;;;;60.83;34.88;;;7.50;99.90;;;;;;12443201;28;20155;-83
2021/03/03 21:12:44;;;;;;;60.28;34.53;;;7.50;99.90;;;;;;12450235;28;20203;-83
2021/03/03 21:19:01;;;;;;;64.15;34.28;;;7.30;99.90;;;;;;12443760;28;20050;-84
2021/03/03 21:25:04;;;;;;;62.30;34.75;;;7.00;99.90;;;;;;12460136;28;20050;-83
2021/03/03 21:31:06;;;;;;;61.13;34.75;;;6.90;99.90;;;;;;12470399;28;20076;-83
2021/03/03 21:37:08;;;;;;;57.78;34.80;;;6.80;99.90;;;;;;12462249;28;20044;-83
2021/03/03 21:43:09;;;;;;;57.65;33.33;;;6.80;99.90;;;;;;12500236;28;20054;-83
2021/03/03 21:49:24;;;;;;;61.42;32.78;;;6.90;99.90;;;;;;12489590;28;20049;-83
2021/03/03 21:55:26;;;;;;;58.28;32.15;;;6.90;99.90;;;;;;12471698;28;20063;-83
2021/03/03 22:01:27;;;;;;;59.97;32.22;;;6.70;99.90;;;;;;12438171;28;20053;-83
2021/03/03 22:07:29;;;;;;;57.05;32.20;;;6.80;99.90;;;;;;12437667;28;20052;-83
2021/03/03 22:13:30;;;;;;;56.25;31.05;;;6.70;99.90;;;;;;12454371;28;20128;-83
2021/03/03 22:19:46;;;;;;;60.30;32.15;;;6.50;99.90;;;;;;12446899;28;20176;-83
2021/03/03 22:25:48;;;;;;;62.88;30.92;;;6.40;99.90;;;;;;12436761;28;20061;-83
2021/03/03 22:31:50;;;;;;;53.03;29.85;;;6.50;99.90;;;;;;12438679;28;20136;-83
2021/03/03 22:37:51;;;;;;;51.20;30.42;;;6.70;99.90;;;;;;12436101;28;20048;-82
2021/03/03 22:43:52;;;;;;;59.88;31.95;;;6.60;99.90;;;;;;12436162;28;20075;-83
2021/03/03 22:50:07;;;;;;;56.30;31.27;;;6.40;99.90;;;;;;12435383;28;20049;-82
2021/03/03 22:56:09;;;;;;;56.50;31.60;;;6.20;99.90;;;;;;12436967;28;20143;-83
2021/03/03 23:02:10;;;;;;;58.08;33.88;;;6.10;99.90;;;;;;12433117;28;20124;-82
2021/03/03 23:08:13;;;;;;;58.50;33.00;;;6.10;99.90;;;;;;12427761;28;20083;-82
2021/03/03 23:14:14;;;;;;;62.47;32.63;;;6.00;99.90;;;;;;12438545;28;20042;-82
2021/03/03 23:20:30;;;;;;;61.60;34.97;;;5.80;99.90;;;;;;12434298;28;20067;-82
2021/03/03 23:26:31;;;;;;;65.10;34.03;;;5.90;99.90;;;;;;12437406;28;20049;-83
2021/03/03 23:32:33;;;;;;;57.55;32.78;;;5.90;99.90;;;;;;12442923;28;20053;-82
2021/03/03 23:38:36;;;;;;;62.95;34.65;;;5.80;99.90;;;;;;12446764;28;20085;-83
2021/03/03 23:44:37;;;;;;;64.35;34.30;;;5.70;99.90;;;;;;12434328;28;20673;-82
2021/03/03 23:50:54;;;;;;;69.30;35.20;;;5.60;99.90;;;;;;12435659;28;20048;-83
2021/03/03 23:56:55;;;;;;;67.72;35.70;;;5.60;99.90;;;;;;12453179;28;20132;-82
